createdAt,value
2023-10-26T00:01:20.940Z,18.17
2023-10-26T00:03:23.751Z,18.90
2023-10-26T00:05:26.882Z,16.60
2023-10-26T00:07:29.937Z,18.00
2023-10-26T00:09:32.652Z,17.20
2023-10-26T00:11:35.378Z,18.33
2023-10-26T00:13:39.589Z,17.75
2023-10-26T00:15:42.169Z,15.80
2023-10-26T00:17:45.401Z,15.80
2023-10-26T00:19:48.160Z,16.17
2023-10-26T00:21:52.997Z,17.45
2023-10-26T00:23:55.585Z,17.52
2023-10-26T00:25:58.742Z,16.27
2023-10-26T00:28:01.436Z,16.42
2023-10-26T00:30:07.419Z,16.38
2023-10-26T00:32:10.405Z,15.25
2023-10-26T00:34:13.967Z,16.17
2023-10-26T00:36:16.539Z,16.10
2023-10-26T00:38:19.267Z,16.02
2023-10-26T00:40:22.028Z,16.13
2023-10-26T00:42:29.277Z,15.48
2023-10-26T00:44:33.080Z,17.50
2023-10-26T00:46:37.727Z,15.75
2023-10-26T00:48:41.590Z,15.40
2023-10-26T00:50:45.635Z,14.27
2023-10-26T00:52:49.851Z,14.02
2023-10-26T00:54:54.159Z,14.68
2023-10-26T00:56:58.608Z,14.13
2023-10-26T00:59:01.512Z,14.90
2023-10-26T01:01:04.394Z,15.48
2023-10-26T01:03:08.588Z,15.35
2023-10-26T01:05:11.232Z,15.18
2023-10-26T01:07:13.874Z,15.63
2023-10-26T01:09:17.326Z,14.73
2023-10-26T01:11:20.920Z,14.93
2023-10-26T01:13:23.949Z,13.32
2023-10-26T01:15:26.752Z,13.40
2023-10-26T01:17:29.659Z,14.18
2023-10-26T01:19:41.076Z,15.10
2023-10-26T01:21:51.848Z,13.90
2023-10-26T01:23:56.155Z,14.05
2023-10-26T01:25:59.945Z,13.98
2023-10-26T01:28:02.850Z,14.60
2023-10-26T01:30:06.964Z,13.85
2023-10-26T01:32:10.627Z,14.68
2023-10-26T01:34:13.246Z,14.65
2023-10-26T01:36:16.102Z,14.23
2023-10-26T01:38:20.181Z,14.43
2023-10-26T01:40:22.977Z,14.35
2023-10-26T01:42:25.596Z,14.35
2023-10-26T01:44:28.295Z,12.98
2023-10-26T01:46:31.187Z,14.32
2023-10-26T01:48:34.020Z,13.20
2023-10-26T01:50:37.221Z,13.38
2023-10-26T01:52:41.279Z,13.50
2023-10-26T01:54:45.555Z,12.50
2023-10-26T01:56:48.485Z,13.45
2023-10-26T01:58:51.277Z,12.85
2023-10-26T02:00:54.011Z,13.30
2023-10-26T02:02:57.475Z,13.40
2023-10-26T02:05:00.549Z,12.88
2023-10-26T02:07:03.278Z,12.93
2023-10-26T02:09:06.168Z,12.90
2023-10-26T02:11:10.210Z,12.63
2023-10-26T02:13:13.019Z,13.45
2023-10-26T02:15:15.925Z,12.57
2023-10-26T02:17:18.859Z,13.40
2023-10-26T02:19:22.835Z,13.20
2023-10-26T02:21:25.774Z,13.95
2023-10-26T02:23:29.425Z,12.70
2023-10-26T02:25:32.502Z,12.68
2023-10-26T02:27:37.154Z,12.10
2023-10-26T02:29:40.397Z,12.82
2023-10-26T02:31:43.402Z,12.57
2023-10-26T02:33:46.299Z,12.48
2023-10-26T02:35:49.142Z,13.68
2023-10-26T02:37:52.124Z,13.88
2023-10-26T02:39:56.240Z,13.68
2023-10-26T02:41:59.399Z,13.50
2023-10-26T02:44:04.361Z,13.38
2023-10-26T02:46:07.382Z,12.10
2023-10-26T02:48:10.295Z,12.85
2023-10-26T02:50:13.500Z,13.32
2023-10-26T02:52:16.420Z,13.32
2023-10-26T02:54:19.426Z,12.80
2023-10-26T02:56:22.381Z,13.23
2023-10-26T02:58:26.044Z,12.07
2023-10-26T03:00:30.677Z,12.43
2023-10-26T03:02:34.086Z,14.10
2023-10-26T03:04:39.050Z,12.88
2023-10-26T03:06:42.749Z,13.32
2023-10-26T03:08:45.652Z,12.73
2023-10-26T03:10:48.848Z,13.45
2023-10-26T03:12:51.839Z,12.95
2023-10-26T03:14:54.774Z,13.15
2023-10-26T03:16:59.686Z,13.40
2023-10-26T03:19:02.625Z,13.70
2023-10-26T03:21:06.064Z,12.88
2023-10-26T03:23:09.036Z,12.35
2023-10-26T03:25:15.437Z,12.70
2023-10-26T03:27:18.976Z,11.40
2023-10-26T03:29:22.881Z,12.30
2023-10-26T03:31:25.896Z,12.82
2023-10-26T03:33:30.300Z,11.95
2023-10-26T03:35:36.803Z,12.82
2023-10-26T03:37:39.760Z,12.27
2023-10-26T03:39:42.803Z,13.27
2023-10-26T03:41:45.842Z,11.50
2023-10-26T03:43:48.928Z,13.57
2023-10-26T03:45:51.871Z,12.93
2023-10-26T03:47:55.095Z,11.38
2023-10-26T03:49:59.512Z,10.75
2023-10-26T03:52:02.729Z,11.18
2023-10-26T03:54:05.947Z,11.32
2023-10-26T03:56:09.670Z,10.88
2023-10-26T03:58:13.985Z,11.77
2023-10-26T04:00:18.177Z,10.93
2023-10-26T04:02:21.144Z,11.00
2023-10-26T04:04:24.133Z,10.90
2023-10-26T04:06:28.438Z,10.30
2023-10-26T04:08:31.370Z,10.65
2023-10-26T04:10:35.620Z,10.80
2023-10-26T04:12:38.902Z,11.60
2023-10-26T04:14:41.831Z,11.68
2023-10-26T04:16:49.159Z,10.93
2023-10-26T04:18:52.148Z,11.07
2023-10-26T04:20:55.133Z,11.48
2023-10-26T04:22:59.706Z,11.48
2023-10-26T04:25:02.687Z,11.83
2023-10-26T04:27:05.776Z,11.48
2023-10-26T04:29:09.002Z,12.13
2023-10-26T04:31:11.865Z,12.70
2023-10-26T04:33:15.208Z,11.95
2023-10-26T04:35:18.246Z,11.23
2023-10-26T04:37:21.360Z,10.77
2023-10-26T04:39:25.872Z,11.02
2023-10-26T04:41:28.835Z,11.87
2023-10-26T04:43:31.700Z,10.90
2023-10-26T04:45:34.964Z,11.25
2023-10-26T04:47:38.114Z,10.65
2023-10-26T04:49:41.786Z,10.75
2023-10-26T04:51:44.683Z,11.52
2023-10-26T04:53:47.659Z,11.88
2023-10-26T04:55:52.162Z,11.93
2023-10-26T04:57:55.235Z,10.73
2023-10-26T04:59:58.258Z,10.82
2023-10-26T05:02:01.215Z,11.15
2023-10-26T05:04:04.251Z,11.57
2023-10-26T05:06:08.179Z,10.30
2023-10-26T05:08:11.117Z,10.35
2023-10-26T05:10:14.600Z,8.82
2023-10-26T05:12:19.038Z,9.55
2023-10-26T05:14:22.031Z,10.05
2023-10-26T05:16:25.180Z,10.27
2023-10-26T05:18:28.312Z,10.32
2023-10-26T05:20:32.039Z,9.02
2023-10-26T05:22:35.191Z,10.05
2023-10-26T05:24:40.391Z,9.85
2023-10-26T05:26:43.356Z,8.02
2023-10-26T05:28:48.640Z,7.75
2023-10-26T05:30:51.694Z,7.90
2023-10-26T05:32:54.664Z,8.32
2023-10-26T05:34:57.653Z,7.75
2023-10-26T05:37:00.528Z,8.25
2023-10-26T05:39:04.820Z,6.93
2023-10-26T05:41:07.771Z,6.60
2023-10-26T05:43:11.809Z,6.60
2023-10-26T05:45:16.527Z,6.88
2023-10-26T05:47:22.018Z,6.10
2023-10-26T05:51:27.868Z,5.55
2023-10-26T05:53:30.800Z,5.15
2023-10-26T05:55:33.823Z,5.45
2023-10-26T05:57:36.828Z,5.20
2023-10-26T05:59:39.861Z,5.20
2023-10-26T06:01:44.273Z,5.07
2023-10-26T06:03:47.403Z,4.97
2023-10-26T06:05:50.372Z,5.25
2023-10-26T06:07:53.613Z,4.18
2023-10-26T06:09:56.707Z,3.80
2023-10-26T06:11:59.766Z,3.88
2023-10-26T06:14:02.675Z,3.42
2023-10-26T06:16:06.558Z,3.83
2023-10-26T06:18:14.416Z,3.13
2023-10-26T06:20:18.353Z,3.67
2023-10-26T06:22:21.280Z,3.38
2023-10-26T06:24:24.341Z,2.88
2023-10-26T06:26:27.308Z,3.17
2023-10-26T06:28:30.691Z,3.00
2023-10-26T06:30:35.595Z,3.00
2023-10-26T06:32:38.895Z,3.30
2023-10-26T06:34:43.500Z,3.35
2023-10-26T06:36:46.869Z,2.50
2023-10-26T06:38:49.837Z,2.97
2023-10-26T06:40:52.963Z,2.97
2023-10-26T06:42:56.007Z,2.78
2023-10-26T06:44:59.082Z,2.20
2023-10-26T06:47:02.214Z,2.88
2023-10-26T06:49:18.353Z,2.55
2023-10-26T06:51:31.544Z,2.75
2023-10-26T06:53:34.568Z,2.38
2023-10-26T06:55:37.473Z,2.50
2023-10-26T06:57:40.536Z,2.47
2023-10-26T06:59:43.494Z,2.30
2023-10-26T07:02:09.594Z,2.22
2023-10-26T07:04:09.376Z,2.30
2023-10-26T07:06:12.382Z,2.20
2023-10-26T07:08:17.140Z,2.20
2023-10-26T07:10:22.868Z,2.50
2023-10-26T07:12:26.028Z,2.55
2023-10-26T07:14:29.093Z,2.05
2023-10-26T07:16:32.063Z,2.58
2023-10-26T07:18:35.295Z,2.40
2023-10-26T07:20:38.636Z,3.45
2023-10-26T07:22:42.031Z,2.58
2023-10-26T07:24:46.496Z,3.85
2023-10-26T07:26:51.202Z,2.70
2023-10-26T07:28:56.424Z,3.38
2023-10-26T07:30:59.891Z,4.93
2023-10-26T07:33:03.038Z,2.88
2023-10-26T07:35:06.602Z,2.72
2023-10-26T07:37:09.605Z,2.45
2023-10-26T07:39:44.485Z,2.83
2023-10-26T07:42:06.779Z,2.05
2023-10-26T07:43:59.857Z,2.40
2023-10-26T07:46:03.312Z,2.50
2023-10-26T07:48:06.882Z,1.95
2023-10-26T07:50:10.187Z,2.15
2023-10-26T07:52:13.137Z,2.63
2023-10-26T07:54:16.399Z,2.05
2023-10-26T07:56:20.764Z,2.50
2023-10-26T07:58:25.601Z,2.83
2023-10-26T08:00:29.287Z,2.47
2023-10-26T08:02:35.290Z,2.20
2023-10-26T08:04:38.940Z,2.17
2023-10-26T08:06:41.872Z,2.10
2023-10-26T08:08:44.856Z,2.10
2023-10-26T08:10:47.867Z,1.98
2023-10-26T08:12:53.177Z,2.20
2023-10-26T08:16:10.895Z,1.92
2023-10-26T08:17:22.376Z,2.17
2023-10-26T08:19:26.175Z,2.08
2023-10-26T08:21:29.666Z,2.25
2023-10-26T08:23:34.469Z,2.45
2023-10-26T08:25:38.098Z,2.50
2023-10-26T08:27:41.095Z,2.28
2023-10-26T08:29:44.605Z,2.42
2023-10-26T08:31:49.334Z,2.33
2023-10-26T08:33:52.440Z,1.80
2023-10-26T08:35:55.375Z,1.80
2023-10-26T08:37:58.555Z,2.05
2023-10-26T08:40:01.573Z,2.10
2023-10-26T08:42:05.562Z,2.00
2023-10-26T08:44:08.726Z,1.98
2023-10-26T08:46:13.421Z,1.70
2023-10-26T08:48:19.467Z,1.55
2023-10-26T08:50:23.932Z,3.58
2023-10-26T08:52:28.560Z,2.92
2023-10-26T08:54:31.707Z,2.67
2023-10-26T08:56:34.716Z,2.83
2023-10-26T08:58:38.565Z,2.83
2023-10-26T09:00:42.490Z,2.47
2023-10-26T09:02:46.319Z,1.83
2023-10-26T09:05:04.456Z,2.60
2023-10-26T09:07:08.237Z,4.55
2023-10-26T09:09:11.577Z,3.17
2023-10-26T09:11:22.676Z,2.35
2023-10-26T09:13:27.273Z,2.50
2023-10-26T09:15:30.829Z,2.65
2023-10-26T09:17:34.386Z,2.53
2023-10-26T09:19:42.486Z,2.47
2023-10-26T09:21:58.143Z,2.70
2023-10-26T09:24:01.477Z,2.72
2023-10-26T09:26:05.939Z,2.50
2023-10-26T09:28:08.971Z,2.57
2023-10-26T09:30:27.408Z,1.88
2023-10-26T09:32:34.508Z,2.22
2023-10-26T09:34:44.059Z,3.47
2023-10-26T09:37:02.141Z,2.00
2023-10-26T09:39:08.624Z,1.58
2023-10-26T09:41:13.658Z,2.60
2023-10-26T09:43:16.627Z,2.42
2023-10-26T09:45:20.630Z,4.40
2023-10-26T09:47:26.034Z,4.22
2023-10-26T09:49:29.451Z,3.03
2023-10-26T09:51:32.527Z,5.25
2023-10-26T09:53:39.855Z,2.63
2023-10-26T09:55:44.573Z,4.10
2023-10-26T09:57:54.547Z,4.80
2023-10-26T10:00:00.671Z,5.57
2023-10-26T10:02:15.263Z,2.90
2023-10-26T10:04:35.234Z,4.88
2023-10-26T10:06:52.321Z,4.25
2023-10-26T10:09:03.530Z,4.68
2023-10-26T10:11:19.306Z,6.70
2023-10-26T10:13:37.618Z,5.90
2023-10-26T10:15:43.803Z,6.32
2023-10-26T10:18:04.458Z,3.88
2023-10-26T10:20:30.905Z,3.55
2023-10-26T10:22:55.267Z,8.52
2023-10-26T10:25:01.189Z,6.78
2023-10-26T10:27:10.958Z,8.55
2023-10-26T10:29:20.646Z,4.50
2023-10-26T10:31:42.177Z,4.28
2023-10-26T10:33:46.595Z,4.43
2023-10-26T10:36:04.639Z,7.75
2023-10-26T10:38:22.936Z,12.00
2023-10-26T10:40:27.482Z,12.68
2023-10-26T10:42:32.332Z,7.20
2023-10-26T10:44:37.817Z,5.47
2023-10-26T10:49:04.766Z,5.05
2023-10-26T10:51:07.790Z,8.13
2023-10-26T10:53:16.600Z,6.20
2023-10-26T10:55:21.826Z,8.18
2023-10-26T10:57:26.691Z,5.13
2023-10-26T10:59:31.978Z,5.53
2023-10-26T11:01:34.820Z,4.78
2023-10-26T11:03:38.362Z,3.33
2023-10-26T11:05:41.873Z,3.67
2023-10-26T11:07:44.936Z,1.75
2023-10-26T11:09:49.620Z,1.45
2023-10-26T11:11:52.779Z,3.58
2023-10-26T11:14:10.951Z,2.55
2023-10-26T11:16:17.949Z,1.70
2023-10-26T11:18:21.134Z,2.00
2023-10-26T11:20:38.692Z,2.55
2023-10-26T11:22:41.596Z,2.92
2023-10-26T11:24:45.556Z,1.73
2023-10-26T11:27:09.388Z,5.15
2023-10-26T11:29:19.775Z,14.23
2023-10-26T11:31:43.958Z,5.53
2023-10-26T11:33:47.193Z,33.78
2023-10-26T11:35:50.104Z,4.53
2023-10-26T11:37:55.246Z,3.58
2023-10-26T11:39:58.222Z,2.95
2023-10-26T11:42:01.259Z,2.10
2023-10-26T11:44:05.463Z,2.10
2023-10-26T11:46:09.982Z,2.30
2023-10-26T11:48:12.997Z,2.72
2023-10-26T11:50:26.714Z,1.58
2023-10-26T11:52:29.691Z,7.93
2023-10-26T11:54:32.825Z,5.20
2023-10-26T11:56:35.789Z,4.85
2023-10-26T11:58:39.789Z,6.60
2023-10-26T12:00:43.699Z,12.90
2023-10-26T12:02:48.632Z,4.05
2023-10-26T12:04:51.584Z,2.90
2023-10-26T12:06:54.545Z,2.20
2023-10-26T12:08:57.498Z,3.03
2023-10-26T12:11:00.537Z,2.35
2023-10-26T12:13:03.702Z,3.03
2023-10-26T12:15:07.989Z,1.70
2023-10-26T12:17:11.165Z,1.70
2023-10-26T12:19:15.638Z,2.72
2023-10-26T12:21:19.009Z,1.70
2023-10-26T12:23:22.052Z,1.30
2023-10-26T12:25:25.300Z,2.40
2023-10-26T12:27:28.480Z,4.00
2023-10-26T12:29:32.708Z,3.38
2023-10-26T12:31:35.878Z,2.05
2023-10-26T12:33:41.306Z,2.15
2023-10-26T12:35:48.332Z,1.38
2023-10-26T12:37:51.328Z,1.60
2023-10-26T12:39:54.423Z,3.60
2023-10-26T12:41:57.226Z,2.58
2023-10-26T12:44:00.279Z,2.90
2023-10-26T12:46:03.309Z,2.40
2023-10-26T12:48:06.666Z,2.15
2023-10-26T12:50:09.816Z,1.80
2023-10-26T12:52:14.336Z,3.38
2023-10-26T12:54:17.427Z,3.80
2023-10-26T12:56:21.699Z,5.43
2023-10-26T12:58:24.677Z,6.38
2023-10-26T13:00:28.474Z,2.40
2023-10-26T13:02:31.502Z,2.55
2023-10-26T13:04:35.350Z,2.15
2023-10-26T13:06:38.593Z,2.58
2023-10-26T13:08:43.129Z,2.42
2023-10-26T13:10:46.119Z,2.90
2023-10-26T13:12:49.353Z,4.03
2023-10-26T13:14:56.935Z,2.78
2023-10-26T13:17:07.373Z,2.58
2023-10-26T13:19:10.326Z,2.20
2023-10-26T13:21:13.427Z,2.50
2023-10-26T13:23:16.358Z,3.83
2023-10-26T13:25:20.796Z,2.15
2023-10-26T13:27:23.960Z,1.90
2023-10-26T13:29:27.087Z,2.15
2023-10-26T13:31:30.188Z,2.33
2023-10-26T13:33:34.291Z,2.10
2023-10-26T13:35:37.285Z,2.25
2023-10-26T13:37:40.502Z,1.70
2023-10-26T13:39:43.767Z,1.60
2023-10-26T13:41:48.406Z,1.67
2023-10-26T13:43:52.749Z,2.00
2023-10-26T13:45:55.690Z,2.03
2023-10-26T13:48:01.118Z,2.17
2023-10-26T13:52:07.233Z,2.28
2023-10-26T13:54:10.229Z,1.85
2023-10-26T13:56:13.178Z,1.83
2023-10-26T13:58:17.966Z,2.17
2023-10-26T14:00:20.917Z,2.70
2023-10-26T14:02:25.495Z,5.30
2023-10-26T14:04:28.468Z,6.70
2023-10-26T14:06:32.752Z,3.08
2023-10-26T14:08:36.219Z,2.65
2023-10-26T14:10:41.874Z,6.70
2023-10-26T14:14:48.879Z,5.25
2023-10-26T14:16:52.477Z,4.97
2023-10-26T14:18:55.692Z,2.60
2023-10-26T14:20:58.639Z,2.55
2023-10-26T14:23:03.481Z,2.25
2023-10-26T14:25:08.174Z,1.67
2023-10-26T14:27:11.311Z,1.80
2023-10-26T14:29:14.787Z,1.70
2023-10-26T14:31:19.306Z,1.67
2023-10-26T14:33:23.028Z,1.50
2023-10-26T14:35:26.022Z,1.92
2023-10-26T14:37:28.988Z,1.50
2023-10-26T14:39:31.995Z,1.27
2023-10-26T14:41:35.174Z,1.60
2023-10-26T14:43:38.206Z,1.70
2023-10-26T14:45:41.238Z,1.75
2023-10-26T14:47:45.818Z,1.85
2023-10-26T14:49:48.777Z,2.22
2023-10-26T14:51:51.763Z,3.70
2023-10-26T14:53:55.720Z,5.68
2023-10-26T14:56:01.733Z,4.70
2023-10-26T14:58:04.596Z,6.45
2023-10-26T15:00:09.269Z,6.15
2023-10-26T15:02:12.150Z,5.65
2023-10-26T15:04:17.087Z,7.30
2023-10-26T15:06:20.091Z,3.97
2023-10-26T15:08:23.080Z,4.45
2023-10-26T15:10:29.763Z,22.00
2023-10-26T15:12:35.316Z,44.13
2023-10-26T15:14:38.250Z,41.58
2023-10-26T15:16:42.183Z,43.55
2023-10-26T15:18:46.386Z,34.95
2023-10-26T15:20:50.981Z,23.92
2023-10-26T15:22:53.850Z,16.65
2023-10-26T15:24:57.033Z,11.55
2023-10-26T15:27:00.413Z,6.90
2023-10-26T15:29:03.450Z,5.10
2023-10-26T15:31:06.457Z,6.70
2023-10-26T15:33:09.428Z,7.70
2023-10-26T15:35:12.545Z,7.35
2023-10-26T15:37:17.642Z,5.13
2023-10-26T15:39:20.674Z,5.45
2023-10-26T15:41:23.696Z,6.38
2023-10-26T15:43:26.716Z,7.68
2023-10-26T15:45:29.657Z,5.28
2023-10-26T15:47:32.663Z,4.43
2023-10-26T15:49:37.958Z,5.10
2023-10-26T15:51:40.882Z,5.13
2023-10-26T15:53:45.891Z,5.20
2023-10-26T15:55:57.120Z,4.95
2023-10-26T15:58:00.199Z,6.00
2023-10-26T16:00:07.808Z,7.75
2023-10-26T16:02:10.884Z,10.10
2023-10-26T16:04:13.880Z,11.05
2023-10-26T16:06:17.510Z,10.52
2023-10-26T16:08:20.466Z,10.52
2023-10-26T16:10:24.944Z,8.02
2023-10-26T16:12:27.842Z,11.38
2023-10-26T16:14:30.775Z,12.38
2023-10-26T16:16:33.867Z,13.48
2023-10-26T16:18:37.016Z,13.23
2023-10-26T16:20:39.926Z,15.52
2023-10-26T16:22:42.964Z,15.90
2023-10-26T16:24:46.164Z,15.77
2023-10-26T16:26:50.787Z,18.17
2023-10-26T16:28:53.752Z,16.95
2023-10-26T16:31:01.245Z,17.05
2023-10-26T16:33:04.852Z,21.58
2023-10-26T16:35:11.166Z,25.88
2023-10-26T16:37:14.085Z,24.42
2023-10-26T16:39:17.096Z,26.90
2023-10-26T16:41:20.154Z,15.98
2023-10-26T16:43:24.991Z,16.08
2023-10-26T16:45:28.212Z,13.95
2023-10-26T16:47:35.354Z,14.65
2023-10-26T16:49:44.148Z,14.77
2023-10-26T16:51:47.187Z,15.77
2023-10-26T16:53:50.172Z,22.20
2023-10-26T16:55:59.888Z,19.10
2023-10-26T16:58:02.763Z,18.92
2023-10-26T17:00:11.368Z,51.85
2023-10-26T17:02:14.423Z,22.00
2023-10-26T17:04:17.313Z,18.90
2023-10-26T17:06:20.253Z,10.43
2023-10-26T17:08:23.217Z,11.13
2023-10-26T17:10:26.185Z,11.55
2023-10-26T17:12:29.262Z,13.40
2023-10-26T17:14:32.071Z,11.32
2023-10-26T17:16:36.705Z,15.75
2023-10-26T17:18:39.779Z,18.63
2023-10-26T17:20:42.664Z,22.85
2023-10-26T17:22:45.590Z,24.75
2023-10-26T17:24:49.753Z,24.58
2023-10-26T17:26:52.618Z,12.27
2023-10-26T17:28:57.935Z,14.38
2023-10-26T17:31:07.202Z,24.08
2023-10-26T17:33:14.437Z,20.10
2023-10-26T17:35:17.931Z,15.23
2023-10-26T17:37:21.281Z,16.95
2023-10-26T17:39:25.732Z,16.17
2023-10-26T17:41:28.788Z,23.90
2023-10-26T17:43:31.630Z,19.85
2023-10-26T17:45:34.861Z,18.90
2023-10-26T17:47:37.884Z,17.60
2023-10-26T17:49:42.500Z,19.38
2023-10-26T17:51:45.550Z,21.03
2023-10-26T17:53:49.513Z,23.90
2023-10-26T17:55:58.743Z,24.13
2023-10-26T17:58:01.735Z,25.40
2023-10-26T18:00:05.811Z,21.48
2023-10-26T18:02:14.668Z,20.63
2023-10-26T18:04:17.610Z,21.30
2023-10-26T18:06:23.750Z,18.98
2023-10-26T18:08:26.589Z,13.75
2023-10-26T18:10:30.438Z,12.98
2023-10-26T18:12:33.430Z,11.35
2023-10-26T18:14:36.360Z,12.90
2023-10-26T18:16:39.487Z,9.77
2023-10-26T18:18:44.218Z,8.98
2023-10-26T18:20:55.537Z,9.13
2023-10-26T18:23:01.730Z,6.68
2023-10-26T18:25:05.331Z,6.78
2023-10-26T18:27:08.443Z,6.38
2023-10-26T18:29:11.307Z,5.22
2023-10-26T18:31:18.744Z,6.35
2023-10-26T18:33:21.650Z,5.70
2023-10-26T18:35:25.677Z,5.05
2023-10-26T18:37:28.713Z,5.78
2023-10-26T18:39:33.126Z,6.20
2023-10-26T18:41:36.047Z,5.90
2023-10-26T18:43:39.094Z,6.32
2023-10-26T18:45:42.202Z,6.22
2023-10-26T18:47:46.641Z,12.90
2023-10-26T18:49:51.053Z,20.80
2023-10-26T18:51:54.010Z,21.88
2023-10-26T18:53:57.175Z,14.00
2023-10-26T18:56:01.555Z,11.05
2023-10-26T18:58:04.595Z,6.43
2023-10-26T19:00:09.523Z,6.47
2023-10-26T19:02:12.682Z,5.10
2023-10-26T19:04:17.818Z,5.10
2023-10-26T19:06:20.782Z,5.55
2023-10-26T19:08:24.511Z,5.30
2023-10-26T19:10:27.584Z,5.47
2023-10-26T19:12:32.083Z,5.20
2023-10-26T19:14:35.058Z,5.00
2023-10-26T19:16:38.045Z,4.80
2023-10-26T19:18:41.107Z,5.40
2023-10-26T19:20:44.353Z,5.28
2023-10-26T19:22:49.332Z,6.10
2023-10-26T19:24:52.276Z,5.70
2023-10-26T19:26:55.312Z,6.95
2023-10-26T19:28:59.786Z,7.80
2023-10-26T19:31:02.756Z,6.95
2023-10-26T19:33:06.399Z,7.40
2023-10-26T19:35:09.484Z,7.97
2023-10-26T19:37:12.462Z,8.15
2023-10-26T19:39:15.383Z,10.13
2023-10-26T19:41:18.404Z,7.43
2023-10-26T19:43:21.384Z,12.38
2023-10-26T19:45:26.012Z,9.88
2023-10-26T19:47:29.006Z,14.50
2023-10-26T19:49:31.979Z,12.60
2023-10-26T19:51:34.870Z,18.33
2023-10-26T19:53:37.899Z,25.95
2023-10-26T19:55:41.135Z,27.15
2023-10-26T19:57:44.258Z,28.08
2023-10-26T19:59:47.663Z,29.42
2023-10-26T20:01:53.236Z,35.83
2023-10-26T20:03:56.270Z,23.73
2023-10-26T20:05:59.300Z,18.83
2023-10-26T20:08:02.187Z,14.80
2023-10-26T20:10:06.878Z,8.02
2023-10-26T20:12:10.378Z,8.15
2023-10-26T20:14:13.461Z,8.52
2023-10-26T20:16:16.772Z,7.00
2023-10-26T20:18:21.344Z,7.00
2023-10-26T20:20:29.787Z,7.35
2023-10-26T20:22:32.984Z,6.05
2023-10-26T20:24:36.148Z,5.20
2023-10-26T20:26:40.485Z,5.28
2023-10-26T20:28:43.786Z,5.75
2023-10-26T20:30:46.976Z,5.40
2023-10-26T20:32:50.418Z,5.18
2023-10-26T20:34:54.989Z,6.40
2023-10-26T20:36:58.922Z,6.63
2023-10-26T20:39:02.101Z,6.03
2023-10-26T20:41:07.171Z,6.28
2023-10-26T20:43:10.336Z,5.57
2023-10-26T20:45:13.442Z,5.40
2023-10-26T20:47:16.361Z,5.28
2023-10-26T20:49:19.438Z,5.85
2023-10-26T20:51:24.083Z,5.75
2023-10-26T20:53:29.239Z,6.43
2023-10-26T20:55:32.390Z,6.07
2023-10-26T20:57:35.360Z,6.47
2023-10-26T20:59:40.429Z,7.28
2023-10-26T21:01:45.129Z,7.38
2023-10-26T21:03:48.249Z,7.95
2023-10-26T21:05:51.861Z,7.57
2023-10-26T21:07:57.073Z,7.35
2023-10-26T21:10:00.144Z,7.65
2023-10-26T21:12:08.345Z,8.43
2023-10-26T21:14:13.033Z,7.93
2023-10-26T21:16:16.223Z,7.15
2023-10-26T21:18:19.169Z,7.75
2023-10-26T21:20:24.300Z,7.45
2023-10-26T21:22:27.256Z,8.48
2023-10-26T21:24:32.092Z,9.25
2023-10-26T21:26:34.961Z,9.25
2023-10-26T21:28:40.199Z,8.93
2023-10-26T21:30:43.134Z,8.52
2023-10-26T21:32:46.138Z,8.70
2023-10-26T21:34:49.122Z,8.75
2023-10-26T21:36:52.137Z,9.27
2023-10-26T21:38:55.052Z,9.45
2023-10-26T21:41:05.398Z,10.13
2023-10-26T21:43:08.380Z,9.38
2023-10-26T21:45:11.868Z,8.75
2023-10-26T21:47:14.895Z,9.15
2023-10-26T21:49:17.896Z,8.68
2023-10-26T21:51:20.780Z,8.27
2023-10-26T21:53:23.760Z,7.82
2023-10-26T21:55:26.656Z,7.75
2023-10-26T21:57:31.129Z,8.48
2023-10-26T21:59:34.199Z,8.48
2023-10-26T22:01:37.205Z,8.32
2023-10-26T22:03:40.573Z,8.57
2023-10-26T22:05:44.681Z,8.20
2023-10-26T22:07:47.639Z,8.82
2023-10-26T22:09:55.480Z,8.48
2023-10-26T22:11:58.758Z,7.97
2023-10-26T22:14:03.317Z,7.53
2023-10-26T22:16:06.808Z,8.13
2023-10-26T22:18:10.175Z,7.97
2023-10-26T22:20:13.279Z,9.00
2023-10-26T22:22:16.260Z,7.25
2023-10-26T22:24:19.321Z,7.68
2023-10-26T22:26:22.414Z,8.15
2023-10-26T22:28:25.283Z,8.80
2023-10-26T22:30:29.842Z,9.05
2023-10-26T22:32:32.754Z,8.48
2023-10-26T22:34:36.012Z,9.23
2023-10-26T22:36:39.390Z,8.95
2023-10-26T22:38:42.332Z,8.60
2023-10-26T22:40:45.451Z,9.05
2023-10-26T22:42:48.662Z,10.43
2023-10-26T22:44:51.824Z,9.15
2023-10-26T22:46:56.347Z,9.38
2023-10-26T22:48:59.540Z,8.95
2023-10-26T22:51:02.678Z,8.98
2023-10-26T22:53:05.652Z,8.68
2023-10-26T22:55:09.712Z,9.18
2023-10-26T22:57:12.676Z,9.05
2023-10-26T22:59:15.652Z,8.82
2023-10-26T23:01:23.299Z,9.35
2023-10-26T23:03:28.558Z,9.60
2023-10-26T23:05:31.422Z,10.07
2023-10-26T23:07:34.472Z,9.27
2023-10-26T23:09:37.704Z,9.15
2023-10-26T23:11:40.781Z,10.73
2023-10-26T23:13:43.735Z,8.88
2023-10-26T23:15:46.776Z,9.40
2023-10-26T23:17:49.753Z,11.93
2023-10-26T23:19:54.480Z,13.40
2023-10-26T23:21:57.490Z,12.90
2023-10-26T23:24:02.247Z,11.13
2023-10-26T23:26:08.168Z,10.53
2023-10-26T23:28:11.959Z,10.25
2023-10-26T23:30:15.456Z,12.32
2023-10-26T23:32:18.358Z,10.70
2023-10-26T23:34:21.357Z,9.75
2023-10-26T23:36:25.964Z,10.25
2023-10-26T23:38:28.780Z,12.85
2023-10-26T23:40:32.670Z,10.77
2023-10-26T23:42:35.610Z,9.98
2023-10-26T23:44:38.660Z,9.73
2023-10-26T23:46:41.484Z,9.73
2023-10-26T23:48:44.615Z,10.00
2023-10-26T23:50:47.515Z,9.68
2023-10-26T23:52:51.869Z,9.70
2023-10-26T23:54:54.910Z,10.65
2023-10-26T23:56:57.955Z,10.13
2023-10-26T23:59:03.593Z,10.45
